Time;durP1;ratioP1;P1;durP2;ratioP2;P2;SDS_P1;SDS_P2;PMS_P1;PMS_P2;Temp;Humidity;BMP_temperature;BMP_pressure;BME280_temperature;BME280_humidity;BME280_pressure;Samples;Min_cycle;Max_cycle;Signal;HPM_P1;HPM_P2
2024/03/02 00:00:07;;;;;;;;;;;;;;;;;;;;;
2024/03/02 00:02:44;;;;;;;297.08;72.03;;;;;;;4.66;100.00;100303.03;4791597;29;20894;-85
2024/03/02 00:05:28;;;;;;;432.63;89.88;;;;;;;4.70;100.00;100300.28;4796235;29;20083;-84
2024/03/02 00:08:07;;;;;;;533.53;85.20;;;6.10;99.90;;;4.75;100.00;100304.53;4807480;29;20052;-85
2024/03/02 00:10:45;;;;;;;367.77;82.15;;;6.10;99.90;;;4.80;100.00;100297.44;4816538;29;20032;-84
2024/03/02 00:16:07;;;;;;;763.03;98.80;;;6.20;99.90;;;4.87;100.00;100297.19;4784349;29;20103;-85
2024/03/02 00:18:43;;;;;;;243.50;71.55;;;6.20;99.90;;;4.90;100.00;100298.84;4802665;29;20053;-85
2024/03/02 00:21:10;;;;;;;334.90;75.80;;;6.20;99.90;;;4.85;100.00;100298.16;4825302;29;20041;-83
2024/03/02 00:23:36;;;;;;;432.25;75.63;;;6.20;99.90;;;4.87;100.00;100301.56;4782924;29;20528;-84
2024/03/02 00:26:14;;;;;;;362.65;70.65;;;6.20;99.90;;;4.80;100.00;100303.50;4830808;29;20054;-85
2024/03/02 00:28:50;;;;;;;1221.38;97.65;;;6.10;99.90;;;4.70;100.00;100302.91;4870992;28;20475;-84
2024/03/02 00:31:19;;;;;;;933.60;85.37;;;6.00;99.90;;;4.63;100.00;100298.78;4912466;28;20116;-85
2024/03/02 00:33:55;;;;;;;712.20;74.03;;;;;;;4.60;100.00;100304.09;4877768;28;20043;-84
2024/03/02 00:39:31;;;;;;;238.45;65.53;;;;;;;4.57;100.00;100314.59;4805019;29;20060;-84
2024/03/02 00:41:58;;;;;;;545.22;76.30;;;;;;;4.57;100.00;100301.56;4813138;29;20068;-85
2024/03/02 00:44:35;;;;;;;585.35;80.65;;;5.90;99.90;;;4.61;100.00;100302.34;4788949;29;20572;-84
2024/03/02 00:47:04;;;;;;;325.52;69.22;;;;;;;4.61;100.00;100300.56;4803758;29;20129;-85
2024/03/02 00:49:39;;;;;;;213.27;65.95;;;;;;;4.64;100.00;100299.63;4783428;29;20084;-84
2024/03/02 00:52:06;;;;;;;297.43;71.63;;;;;;;4.64;100.00;100292.66;4780283;29;20053;-85
2024/03/02 00:54:33;;;;;;;905.45;92.72;;;;;;;4.66;100.00;100298.66;4796537;29;20153;-85
2024/03/02 00:57:12;;;;;;;341.08;72.93;;;6.00;99.90;;;4.68;100.00;100294.28;4795335;29;20049;-84
2024/03/02 00:59:47;;;;;;;1399.00;105.60;;;6.00;99.90;;;4.68;100.00;100283.00;4732609;29;20057;-84
2024/03/02 01:02:13;;;;;;;1326.57;95.13;;;6.00;99.90;;;4.66;100.00;100275.19;4741892;29;20752;-85
2024/03/02 01:04:39;;;;;;;1999.90;139.00;;;6.00;99.90;;;4.59;100.00;100278.91;4768749;29;20149;-83
2024/03/02 01:07:05;;;;;;;1999.90;139.48;;;5.90;99.90;;;4.53;100.00;100273.84;4755010;29;20080;-84
2024/03/02 01:09:54;;;;;;;1999.90;139.82;;;5.90;99.90;;;4.50;100.00;100271.34;4762480;29;20054;-83
2024/03/02 01:12:25;;;;;;;679.15;86.68;;;5.90;99.90;;;4.46;100.00;100270.56;4769251;29;20048;-84
2024/03/02 01:15:14;;;;;;;1669.38;119.72;;;5.80;99.90;;;4.45;100.00;100265.41;4762141;29;20083;-84
2024/03/02 01:17:40;;;;;;;1999.90;133.20;;;;;;;4.45;100.00;100261.06;4826504;29;20044;-84
2024/03/02 01:20:09;;;;;;;347.27;79.88;;;5.80;99.90;;;4.46;100.00;100267.13;4855507;29;20044;-85
2024/03/02 01:22:44;;;;;;;1251.00;105.80;;;;;;;4.48;100.00;100267.94;4845061;29;20059;-84
2024/03/02 01:25:13;;;;;;;1232.03;101.78;;;5.80;99.90;;;4.49;100.00;100267.00;4836681;29;20047;-83
2024/03/02 01:27:47;;;;;;;965.05;93.65;;;5.90;99.90;;;4.54;100.00;100272.97;4823298;29;20427;-84
2024/03/02 01:30:13;;;;;;;1304.53;110.07;;;;;;;4.54;100.00;100265.16;4842440;28;20038;-85
2024/03/02 01:32:39;;;;;;;683.80;87.45;;;5.90;99.90;;;4.57;100.00;100257.22;4868737;28;20065;-84
2024/03/02 01:35:14;;;;;;;883.47;97.97;;;;;;;4.63;100.00;100261.41;4854284;28;20431;-83
2024/03/02 01:37:42;;;;;;;951.60;102.15;;;6.00;99.90;;;4.67;100.00;100255.22;4873494;28;20092;-85
2024/03/02 01:40:09;;;;;;;997.97;104.95;;;6.00;99.90;;;4.71;100.00;100252.47;4947677;28;20035;-84
2024/03/02 01:42:43;;;;;;;1200.25;117.05;;;;;;;4.77;100.00;100258.38;4899377;28;20112;-84
2024/03/02 01:45:12;;;;;;;1515.90;129.18;;;6.10;99.90;;;4.82;100.00;100248.69;4866543;28;20105;-85
2024/03/02 01:47:47;;;;;;;1104.18;122.20;;;6.20;99.90;;;4.87;100.00;100249.38;4910700;28;20042;-84
2024/03/02 01:50:14;;;;;;;785.85;111.82;;;;;;;4.90;100.00;100247.56;4907657;28;20398;-83
2024/03/02 01:52:57;;;;;;;612.85;104.60;;;6.20;99.90;;;4.94;100.00;100254.34;4873218;28;20039;-84
2024/03/02 01:55:30;;;;;;;553.60;104.00;;;6.30;99.90;;;4.98;100.00;100249.91;4899885;28;20085;-83
2024/03/02 01:57:56;;;;;;;735.72;113.72;;;6.30;99.90;;;5.02;100.00;100246.31;4871785;28;20102;-85
2024/03/02 02:00:26;;;;;;;720.28;116.40;;;6.30;99.90;;;5.08;100.00;100246.13;4929690;28;20051;-84
2024/03/02 02:02:58;;;;;;;569.10;108.35;;;6.40;99.90;;;5.16;100.00;100237.19;4865047;28;20044;-83
2024/03/02 02:05:27;;;;;;;721.72;118.15;;;6.30;99.90;;;5.22;100.00;100243.06;4823232;29;20163;-86
2024/03/02 02:08:00;;;;;;;555.13;111.15;;;;;;;5.25;100.00;100240.34;4832053;28;20142;-85
2024/03/02 02:10:26;;;;;;;528.58;110.88;;;6.60;99.90;;;5.31;100.00;100244.50;4840276;28;20055;-86
2024/03/02 02:12:55;;;;;;;591.38;110.35;;;;;;;5.35;100.00;100235.69;4839167;29;20037;-83
2024/03/02 02:15:29;;;;;;;469.80;105.28;;;6.60;99.90;;;5.37;100.00;100233.88;4838728;29;20039;-84
2024/03/02 02:17:57;;;;;;;548.53;108.75;;;;;;;5.40;100.00;100231.19;4873259;28;20122;-85
2024/03/02 02:20:34;;;;;;;596.78;111.53;;;6.70;99.90;;;5.44;100.00;100227.56;4896130;28;20047;-83
2024/03/02 02:23:35;;;;;;;588.75;111.88;;;6.80;99.90;;;5.50;100.00;100237.78;4902260;28;20066;-85
2024/03/02 02:26:12;;;;;;;513.92;105.00;;;6.80;99.90;;;5.49;100.00;100225.63;4869909;28;20031;-85
2024/03/02 02:28:38;;;;;;;441.27;99.50;;;6.80;99.90;;;5.54;100.00;100231.53;4887972;28;20443;-84
2024/03/02 02:31:04;;;;;;;544.10;109.80;;;6.90;99.90;;;5.57;100.00;100220.13;4897312;28;20043;-85
2024/03/02 02:33:55;;;;;;;536.70;106.38;;;6.90;99.90;;;5.64;100.00;100229.50;4873118;28;20035;-83
2024/03/02 02:36:24;;;;;;;587.97;114.22;;;7.00;99.90;;;5.67;100.00;100223.31;4822175;29;20057;-84
2024/03/02 02:38:59;;;;;;;575.03;117.13;;;7.00;99.90;;;5.71;100.00;100220.53;4842822;29;20112;-83
2024/03/02 02:41:28;;;;;;;588.30;115.43;;;7.00;99.90;;;5.78;100.00;100215.94;4812567;29;20077;-86
2024/03/02 02:43:53;;;;;;;544.40;112.50;;;7.10;99.90;;;5.78;100.00;100208.09;4823178;29;20047;-85
2024/03/02 02:46:28;;;;;;;645.03;120.32;;;;;;;5.85;100.00;100212.22;4810513;29;20032;-85
2024/03/02 02:48:56;;;;;;;519.53;110.43;;;7.20;99.90;;;5.89;100.00;100219.03;4841695;29;20044;-85
2024/03/02 02:51:45;;;;;;;486.10;110.35;;;7.20;99.90;;;5.92;100.00;100213.72;4818212;29;20044;-86
2024/03/02 02:54:16;;;;;;;583.47;110.40;;;7.20;99.90;;;5.91;100.00;100209.38;4792976;29;20051;-85
2024/03/02 02:56:48;;;;;;;642.08;115.93;;;;;;;5.96;100.00;100214.47;4783473;29;20049;-86
2024/03/02 02:59:16;;;;;;;505.90;108.18;;;7.30;99.90;;;5.99;100.00;100222.22;4807168;29;20124;-83
2024/03/02 03:01:45;;;;;;;666.63;117.70;;;7.30;99.90;;;6.01;100.00;100216.94;4811354;29;20081;-84
2024/03/02 03:04:19;;;;;;;479.88;108.70;;;7.30;99.90;;;6.04;100.00;100217.66;4835944;29;20045;-86
2024/03/02 03:06:46;;;;;;;488.08;111.97;;;7.30;99.90;;;6.05;100.00;100210.69;4813940;29;20048;-87
2024/03/02 03:09:38;;;;;;;493.13;111.63;;;7.40;99.90;;;6.09;100.00;100214.88;4829626;29;20040;-87
2024/03/02 03:12:07;;;;;;;545.40;114.28;;;7.40;99.90;;;6.12;100.00;100212.16;4826263;29;20063;-86
2024/03/02 03:14:33;;;;;;;599.95;116.10;;;;;;;6.14;100.00;100208.59;4862178;28;20160;-87
2024/03/02 03:17:08;;;;;;;645.90;117.57;;;7.50;99.90;;;6.18;100.00;100208.47;4871914;29;20043;-86
2024/03/02 03:19:46;;;;;;;533.10;114.18;;;7.50;99.90;;;6.21;100.00;100203.13;4891237;28;20078;-88
2024/03/02 03:22:16;;;;;;;644.00;115.40;;;;;;;6.23;100.00;100207.41;4874747;28;20400;-85
2024/03/02 03:24:53;;;;;;;540.13;107.40;;;;;;;6.24;100.00;100211.72;4874668;28;20057;-86
2024/03/02 03:27:28;;;;;;;514.83;105.97;;;;;;;6.26;100.00;100212.50;4863988;28;20039;-85
2024/03/02 03:29:56;;;;;;;510.42;103.05;;;7.50;99.90;;;6.26;100.00;100206.41;4843388;29;20044;-85
2024/03/02 03:32:22;;;;;;;482.42;107.82;;;;;;;6.28;100.00;100207.22;4890729;28;20076;-86
2024/03/02 03:34:49;;;;;;;597.20;111.68;;;;;;;6.30;100.00;100214.09;4879148;28;20041;-88
2024/03/02 03:37:32;;;;;;;540.75;109.43;;;7.60;99.90;;;6.31;100.00;100207.97;4903450;28;20927;-87
2024/03/02 03:40:09;;;;;;;511.38;110.97;;;;;;;6.34;100.00;100218.31;4879646;28;20610;-87
2024/03/02 03:42:59;;;;;;;503.00;112.15;;;7.60;99.90;;;6.36;100.00;100224.31;4911536;28;20047;-87
2024/03/02 03:45:26;;;;;;;549.40;109.63;;;7.70;99.90;;;6.36;100.00;100216.47;4881711;28;20086;-87
2024/03/02 03:48:09;;;;;;;470.83;113.57;;;7.70;99.90;;;6.38;100.00;100213.81;4858580;28;20047;-86
2024/03/02 03:50:43;;;;;;;505.77;127.10;;;7.70;99.90;;;6.45;100.00;100214.44;4949140;28;20040;-86
2024/03/02 03:53:09;;;;;;;558.35;133.75;;;7.70;99.90;;;6.51;100.00;100211.59;4837545;28;20047;-86
2024/03/02 03:55:35;;;;;;;546.42;139.57;;;7.80;99.90;;;6.58;100.00;100218.28;4856274;28;20030;-87
2024/03/02 03:58:08;;;;;;;542.00;135.80;;;7.90;99.90;;;6.66;100.00;100212.78;4891355;28;20040;-87
2024/03/02 04:00:37;;;;;;;531.28;135.82;;;7.90;99.90;;;6.74;100.00;100208.94;4875301;28;20106;-86
2024/03/02 04:03:03;;;;;;;533.10;139.00;;;;;;;6.81;100.00;100196.47;4862768;28;20035;-88
2024/03/02 04:05:29;;;;;;;513.22;140.63;;;8.10;99.90;;;6.86;100.00;100185.81;4896988;28;21187;-86
2024/03/02 04:08:06;;;;;;;498.80;138.48;;;8.10;99.90;;;6.92;100.00;100196.91;4866686;28;20051;-86
2024/03/02 04:10:42;;;;;;;;;;;;;;;;;;;;;
2024/03/02 04:13:08;;;;;;;;;;;8.20;99.90;;;6.99;100.00;100197.50;4863542;28;20046;-87
2024/03/02 04:15:36;;;;;;;478.53;130.40;;;8.30;99.90;;;7.02;100.00;100205.25;4908489;28;20290;-87
2024/03/02 04:18:13;;;;;;;515.65;134.57;;;;;;;7.08;100.00;100210.22;4847028;28;20054;-86
2024/03/02 04:20:39;;;;;;;505.30;133.70;;;;;;;7.12;100.00;100203.09;4898159;28;20039;-87
2024/03/02 04:23:19;;;;;;;514.47;140.10;;;8.40;99.90;;;7.17;100.00;100201.13;4868710;28;20400;-87
2024/03/02 04:25:57;;;;;;;513.10;137.40;;;8.40;99.90;;;7.21;100.00;100201.88;4862474;28;20046;-87
2024/03/02 04:28:32;;;;;;;503.95;139.52;;;;;;;7.23;100.00;100200.88;4866005;28;20228;-88
2024/03/02 04:30:58;;;;;;;478.33;135.00;;;8.50;99.90;;;7.25;100.00;100203.44;4841672;28;20527;-86
2024/03/02 04:33:27;;;;;;;477.02;134.27;;;8.50;99.90;;;7.28;100.00;100209.41;4872366;28;20043;-86
2024/03/02 04:36:00;;;;;;;481.05;134.07;;;8.50;99.90;;;7.30;100.00;100204.97;4889754;28;20099;-87
2024/03/02 04:38:26;;;;;;;475.20;137.13;;;;;;;7.34;100.00;100209.16;4873594;28;20043;-86
2024/03/02 04:41:06;;;;;;;507.50;134.98;;;8.60;99.90;;;7.37;100.00;100202.94;4891353;28;20040;-87
2024/03/02 04:43:35;;;;;;;489.27;134.05;;;8.70;99.90;;;7.40;100.00;100208.03;4864224;28;20043;-87
2024/03/02 04:46:09;;;;;;;466.10;134.95;;;8.70;99.90;;;7.45;100.00;100200.88;4895281;28;20055;-87
2024/03/02 04:48:37;;;;;;;448.20;130.30;;;8.70;99.90;;;7.46;100.00;100199.94;4857342;28;20137;-87
2024/03/02 04:51:05;;;;;;;459.77;134.15;;;;;;;7.49;100.00;100199.78;4894173;28;20043;-86
2024/03/02 04:53:38;;;;;;;461.77;130.68;;;;;;;7.52;100.00;100209.31;4913375;28;20063;-87
2024/03/02 04:59:21;;;;;;;404.77;121.65;;;8.80;99.90;;;7.55;100.00;100204.78;4888335;28;20050;-85
2024/03/02 05:01:55;;;;;;;452.85;129.25;;;8.80;99.90;;;7.57;100.00;100202.94;4799072;29;20063;-84
2024/03/02 05:04:24;;;;;;;444.30;124.90;;;8.80;99.90;;;7.60;100.00;100207.19;4798164;29;20045;-84
2024/03/02 05:07:19;;;;;;;439.17;126.90;;;;;;;7.64;100.00;100202.69;4848898;29;20035;-84
2024/03/02 05:09:45;;;;;;;431.67;126.40;;;;;;;7.65;100.00;100209.66;4792763;29;20387;-87
2024/03/02 05:15:28;;;;;;;474.00;127.90;;;8.90;99.90;;;7.71;100.00;100215.47;4800187;29;20215;-88
2024/03/02 05:17:57;;;;;;;429.13;126.05;;;8.90;99.90;;;7.69;100.00;100212.06;4804689;29;20124;-86
2024/03/02 05:20:23;;;;;;;438.40;124.28;;;9.00;99.90;;;7.71;100.00;100223.34;4821963;29;20209;-87
2024/03/02 05:22:49;;;;;;;424.50;118.65;;;8.90;99.90;;;7.69;100.00;100214.69;4756997;29;20057;-84
2024/03/02 05:25:26;;;;;;;447.95;123.70;;;9.00;99.90;;;7.71;100.00;100211.97;4811140;29;20048;-84
2024/03/02 05:27:52;;;;;;;447.92;123.15;;;9.00;99.90;;;7.74;100.00;100212.72;4811569;29;20060;-84
2024/03/02 05:30:26;;;;;;;492.55;127.25;;;9.00;99.90;;;7.76;100.00;100208.25;4817619;29;20078;-85
2024/03/02 05:32:52;;;;;;;434.05;126.93;;;9.10;99.90;;;7.78;100.00;100206.41;4782606;29;20608;-84
2024/03/02 05:35:18;;;;;;;435.73;121.40;;;;;;;7.80;100.00;100211.59;4774964;29;20058;-84
2024/03/02 05:37:56;;;;;;;459.38;126.28;;;9.00;99.90;;;7.78;100.00;100209.03;4804308;29;20040;-85
2024/03/02 05:40:22;;;;;;;395.15;119.75;;;;;;;7.80;100.00;100216.84;4810624;29;20033;-85
2024/03/02 05:42:48;;;;;;;385.90;117.25;;;9.10;99.90;;;7.82;100.00;100217.63;4825342;29;20105;-84
2024/03/02 05:45:23;;;;;;;455.75;123.70;;;9.10;99.90;;;7.84;100.00;100210.56;4847725;29;20040;-86
2024/03/02 05:47:48;;;;;;;433.88;123.65;;;9.10;99.90;;;7.89;100.00;100220.84;4848547;29;20690;-85
2024/03/02 05:50:15;;;;;;;458.23;120.20;;;;;;;7.90;100.00;100214.66;4850906;29;20040;-85
2024/03/02 05:52:40;;;;;;;421.98;122.20;;;9.20;99.90;;;7.91;100.00;100212.00;4849900;28;20055;-84
2024/03/02 05:55:17;;;;;;;424.38;122.32;;;9.20;99.90;;;7.94;100.00;100213.63;4836460;28;20044;-84
2024/03/02 06:03:16;;;;;;;347.58;107.90;;;;;;;7.93;100.00;100218.00;4825419;29;20485;-86
2024/03/02 06:05:42;;;;;;;413.77;117.40;;;9.20;99.90;;;7.96;100.00;100214.41;4815506;29;20457;-85
2024/03/02 06:08:08;;;;;;;385.08;115.72;;;9.20;99.90;;;7.96;100.00;100217.88;4782056;29;20136;-84
2024/03/02 06:10:48;;;;;;;382.58;115.70;;;9.30;99.90;;;8.00;100.00;100218.59;4812354;29;20058;-85
2024/03/02 06:13:26;;;;;;;380.10;116.13;;;9.30;99.90;;;8.02;100.00;100222.84;4868768;29;20051;-87
2024/03/02 06:15:52;;;;;;;377.95;117.90;;;9.30;99.90;;;8.01;100.00;100221.16;4833070;29;20523;-86
2024/03/02 06:18:27;;;;;;;395.25;122.82;;;;;;;8.06;100.00;100225.34;4822477;29;20532;-86
2024/03/02 06:21:09;;;;;;;416.55;134.38;;;9.30;99.90;;;8.02;100.00;100217.59;4816665;29;20053;-86
2024/03/02 06:24:01;;;;;;;425.50;135.45;;;9.30;99.90;;;8.07;100.00;100227.03;4812584;29;20080;-86
2024/03/02 06:26:29;;;;;;;408.02;122.60;;;9.30;99.90;;;8.11;100.00;100236.47;4746743;29;20202;-86
2024/03/02 06:28:57;;;;;;;426.83;138.25;;;;;;;8.09;100.00;100233.91;4724432;29;20683;-85
2024/03/02 06:31:30;;;;;;;425.55;135.63;;;;;;;8.12;100.00;100235.53;4729362;29;20510;-86
2024/03/02 06:33:58;;;;;;;411.77;127.45;;;;;;;8.14;100.00;100241.56;4698863;29;20152;-85
2024/03/02 06:36:34;;;;;;;401.02;120.53;;;;;;;8.14;100.00;100231.09;4888364;23;20054;-85
2024/03/02 06:39:00;;;;;;;380.45;117.13;;;9.40;99.90;;;8.15;100.00;100233.66;4895036;28;20121;-86
2024/03/02 06:41:26;;;;;;;386.08;115.80;;;9.40;99.90;;;8.18;100.00;100240.53;4860731;28;20047;-85
2024/03/02 06:43:59;;;;;;;382.95;112.15;;;9.40;99.90;;;8.18;100.00;100240.53;4894322;28;20039;-86
2024/03/02 06:46:27;;;;;;;376.25;112.90;;;9.50;99.90;;;8.17;100.00;100233.59;4925313;28;20035;-85
2024/03/02 06:48:57;;;;;;;358.33;109.97;;;;;;;8.21;100.00;100237.78;4915203;28;20105;-85
2024/03/02 06:51:36;;;;;;;351.30;108.72;;;;;;;8.23;100.00;100238.56;4940623;28;20042;-86
2024/03/02 06:54:11;;;;;;;354.55;107.93;;;9.50;99.90;;;8.25;100.00;100233.22;4953067;28;20048;-86
2024/03/02 06:56:38;;;;;;;355.83;104.90;;;9.50;99.90;;;8.28;100.00;100244.44;4871202;28;20032;-86
2024/03/02 06:59:15;;;;;;;384.75;109.45;;;9.50;99.90;;;8.29;100.00;100240.88;4863272;28;20058;-85
2024/03/02 07:01:43;;;;;;;355.02;107.07;;;;;;;8.30;100.00;100247.84;4876160;28;20415;-86
2024/03/02 07:04:09;;;;;;;360.08;109.35;;;9.60;99.90;;;8.30;100.00;100247.84;4885230;28;20043;-86
2024/03/02 07:07:12;;;;;;;344.52;106.07;;;9.60;99.90;;;8.35;100.00;100255.50;4870186;28;20055;-85
2024/03/02 07:09:38;;;;;;;337.48;101.75;;;9.60;99.90;;;8.33;100.00;100247.69;4860082;28;20034;-85
2024/03/02 07:12:07;;;;;;;337.88;105.22;;;9.60;99.90;;;8.36;100.00;100250.22;4869843;28;20509;-86
2024/03/02 07:17:29;;;;;;;310.30;98.55;;;9.60;99.90;;;8.40;100.00;100248.28;4903431;28;20042;-86
2024/03/02 07:20:03;;;;;;;293.17;90.97;;;9.60;99.90;;;8.36;100.00;100252.00;4906698;28;20047;-84
2024/03/02 07:22:30;;;;;;;259.05;85.38;;;;;;;8.35;100.00;100245.88;4874709;28;20043;-85
2024/03/02 07:24:56;;;;;;;299.17;97.63;;;;;;;8.38;100.00;100245.75;4862129;28;20043;-86
2024/03/02 07:27:31;;;;;;;295.70;96.72;;;;;;;8.41;100.00;100243.00;4897911;28;20050;-84
2024/03/02 07:29:58;;;;;;;297.33;95.60;;;;;;;8.43;100.00;100252.59;4880882;28;20042;-85
2024/03/02 07:32:49;;;;;;;318.95;98.82;;;9.60;99.90;;;8.43;100.00;100245.56;4890179;28;20066;-86
2024/03/02 07:35:18;;;;;;;291.20;87.68;;;9.70;99.90;;;8.45;100.00;100253.38;4874398;23;20094;-85
2024/03/02 07:37:51;;;;;;;310.10;95.00;;;9.70;99.90;;;8.44;100.00;100259.53;4893413;28;20420;-85
2024/03/02 07:40:17;;;;;;;286.85;90.95;;;9.70;99.90;;;8.43;100.00;100260.47;4842942;28;20146;-85
2024/03/02 07:42:47;;;;;;;278.90;86.90;;;;;;;8.43;100.00;100261.31;4839890;28;20121;-86
2024/03/02 07:45:21;;;;;;;287.83;89.43;;;9.70;99.90;;;8.45;100.00;100272.59;4941880;28;20039;-85
2024/03/02 07:47:47;;;;;;;265.17;85.30;;;;;;;8.44;100.00;100265.63;4824016;29;20119;-86
2024/03/02 07:50:17;;;;;;;277.33;87.13;;;;;;;8.44;100.00;100276.13;4873438;28;20103;-86
2024/03/02 07:52:51;;;;;;;278.27;86.15;;;9.70;99.90;;;8.44;100.00;100260.38;4843489;28;20581;-86
2024/03/02 07:55:17;;;;;;;233.07;77.13;;;9.70;99.90;;;8.43;100.00;100270.97;4842675;28;20072;-85
2024/03/02 07:57:45;;;;;;;289.88;87.18;;;9.70;99.90;;;8.44;100.00;100277.88;4851771;28;20035;-86
2024/03/02 08:00:21;;;;;;;275.55;83.90;;;9.70;99.90;;;8.48;100.00;100282.94;4876373;29;20040;-86
2024/03/02 08:02:47;;;;;;;301.80;86.97;;;9.70;99.90;;;8.45;100.00;100282.22;4863814;28;20053;-85
2024/03/02 08:05:20;;;;;;;295.85;85.80;;;9.70;99.90;;;8.44;100.00;100280.50;4841641;28;20051;-86
2024/03/02 08:07:47;;;;;;;259.27;79.88;;;9.70;99.90;;;8.40;100.00;100283.28;4849487;28;20028;-86
2024/03/02 08:10:15;;;;;;;247.68;77.68;;;9.70;99.90;;;8.41;100.00;100298.09;4820285;28;20711;-86
2024/03/02 08:12:49;;;;;;;240.45;74.00;;;9.60;99.90;;;8.37;100.00;100290.41;4858781;29;20036;-85
2024/03/02 08:15:15;;;;;;;218.48;71.60;;;;;;;8.31;100.00;100281.03;4927130;23;20229;-85
2024/03/02 08:20:40;;;;;;;209.00;67.68;;;;;;;8.30;100.00;100292.44;4821732;29;20104;-86
2024/03/02 08:23:32;;;;;;;215.88;68.63;;;;;;;8.33;100.00;100286.22;4807339;29;20040;-84
2024/03/02 08:26:01;;;;;;;204.10;69.18;;;9.60;99.90;;;8.33;100.00;100288.84;4826734;29;20038;-86
2024/03/02 08:28:40;;;;;;;229.23;72.53;;;9.70;99.90;;;8.35;100.00;100290.47;4825534;29;20052;-85
2024/03/02 08:31:15;;;;;;;191.35;67.45;;;;;;;8.38;100.00;100292.97;4842382;29;20052;-84
2024/03/02 08:33:41;;;;;;;175.63;66.68;;;9.60;99.90;;;8.38;100.00;100297.34;4825491;29;20326;-84
2024/03/02 08:36:09;;;;;;;181.82;65.78;;;9.60;99.90;;;8.36;100.00;100293.97;4860315;29;20620;-87
2024/03/02 08:38:59;;;;;;;186.90;66.93;;;;;;;8.41;100.00;100307.75;4826955;29;20092;-86
2024/03/02 08:41:28;;;;;;;166.32;60.95;;;;;;;8.38;100.00;100311.34;4817439;29;20086;-87
2024/03/02 08:44:41;;;;;;;168.85;62.80;;;9.70;99.90;;;8.35;100.00;100298.31;4831545;29;20043;-87
2024/03/02 08:48:09;;;;;;;159.52;60.60;;;9.60;99.90;;;8.36;100.00;100312.31;4824592;29;22183;-90
2024/03/02 08:50:49;;;;;;;167.02;60.55;;;9.60;99.90;;;8.39;100.00;100312.19;4770550;29;20034;-86
2024/03/02 08:53:42;;;;;;;180.60;65.53;;;;;;;8.49;100.00;100310.00;4783456;29;20038;-87
2024/03/02 08:56:08;;;;;;;173.90;62.67;;;;;;;8.50;100.00;100323.06;4876143;23;20495;-87
2024/03/02 08:58:57;;;;;;;179.40;62.88;;;;;;;8.53;100.00;100319.47;4840557;28;20049;-86
2024/03/02 09:01:41;;;;;;;165.02;62.20;;;;;;;8.53;100.00;100314.22;4805349;29;20041;-87
2024/03/02 09:04:18;;;;;;;155.90;61.90;;;9.80;99.90;;;8.52;100.00;100323.00;4812200;29;20051;-87
2024/03/02 09:07:18;;;;;;;150.43;58.13;;;9.80;99.90;;;8.56;100.00;100321.97;4796332;29;20042;-87
2024/03/02 09:10:10;;;;;;;158.60;61.17;;;9.90;99.90;;;8.60;100.00;100318.28;4768213;29;20034;-87
2024/03/02 09:12:39;;;;;;;165.02;61.45;;;;;;;8.65;100.00;100325.94;4758121;29;20498;-87
2024/03/02 09:15:27;;;;;;;;;;;;;;;;;;;;;
2024/03/02 09:18:08;;;;;;;159.00;58.53;;;;;;;8.72;100.00;100335.22;4769493;29;20101;-88
2024/03/02 09:20:49;;;;;;;123.55;52.55;;;;;;;8.71;100.00;100334.38;4797718;29;20542;-85
2024/03/02 09:23:18;;;;;;;136.80;52.60;;;10.00;99.90;;;8.73;100.00;100340.44;4781933;29;20046;-85
2024/03/02 09:25:57;;;;;;;161.48;59.50;;;;;;;8.75;100.00;100337.75;4738122;29;20042;-86
2024/03/02 09:29:09;;;;;;;161.38;59.65;;;10.00;99.90;;;8.79;100.00;100345.41;4743834;29;20110;-86
2024/03/02 09:31:49;;;;;;;155.35;59.15;;;;;;;8.79;100.00;100337.53;4726538;29;20079;-85
2024/03/02 09:34:48;;;;;;;163.00;58.47;;;;;;;8.82;100.00;100339.16;4740150;23;20069;-86
2024/03/02 09:37:37;;;;;;;161.00;59.53;;;;;;;8.87;100.00;100341.56;4807605;29;20046;-86
2024/03/02 09:41:12;;;;;;;166.93;59.10;;;10.20;99.90;;;8.88;100.00;100340.66;4805215;29;20115;-86
2024/03/02 09:43:47;;;;;;;156.77;57.40;;;;;;;8.90;100.00;100342.28;4806110;29;20033;-86
2024/03/02 09:46:40;;;;;;;167.00;59.00;;;;;;;8.93;100.00;100347.38;4807930;29;20052;-87
2024/03/02 09:49:09;;;;;;;159.45;56.85;;;;;;;8.96;100.00;100347.25;4801022;29;20101;-86
2024/03/02 09:51:48;;;;;;;159.13;57.20;;;;;;;8.99;100.00;100347.13;4838810;29;20032;-86
2024/03/02 09:54:39;;;;;;;161.73;58.00;;;;;;;9.02;100.00;100351.38;4801969;29;20090;-86
2024/03/02 09:57:11;;;;;;;153.40;59.70;;;10.30;99.90;;;9.10;100.00;100348.41;4815508;29;20041;-85
2024/03/02 10:00:17;;;;;;;155.63;61.25;;;10.40;99.90;;;9.13;100.00;100343.84;4802421;29;20780;-86
2024/03/02 10:02:49;;;;;;;151.65;56.15;;;;;;;9.15;100.00;100346.41;4769457;29;20041;-85
2024/03/02 10:06:39;;;;;;;170.98;62.42;;;10.40;99.90;;;9.21;100.00;100346.97;4762643;29;20046;-86
2024/03/02 10:09:19;;;;;;;161.90;57.42;;;;;;;9.24;100.00;100348.59;4679546;29;20051;-86
2024/03/02 10:11:48;;;;;;;156.90;58.50;;;;;;;9.27;100.00;100348.47;4653369;30;20069;-86
2024/03/02 10:14:41;;;;;;;157.73;58.25;;;10.50;99.90;;;9.29;100.00;100351.00;4718980;30;20130;-86
2024/03/02 10:17:21;;;;;;;165.25;59.63;;;;;;;9.30;100.00;100350.09;4696448;29;20105;-86
2024/03/02 10:19:50;;;;;;;157.55;58.42;;;;;;;9.33;100.00;100355.19;4712752;30;20083;-86
2024/03/02 10:22:39;;;;;;;180.18;63.30;;;10.60;99.90;;;9.37;100.00;100357.63;4690477;29;20521;-87
2024/03/02 10:25:41;;;;;;;165.02;58.72;;;10.60;99.90;;;9.37;100.00;100351.47;4687671;30;20071;-86
2024/03/02 10:28:48;;;;;;;171.95;59.25;;;;;;;9.41;100.00;100350.41;4668201;30;20549;-86
2024/03/02 10:34:57;;;;;;;178.45;57.75;;;10.70;99.90;;;9.42;100.00;100357.41;5068413;27;20405;-88
2024/03/02 10:38:40;;;;;;;176.20;58.50;;;10.70;99.90;;;9.42;100.00;100358.25;4951686;28;20519;-87
2024/03/02 10:41:10;;;;;;;179.98;59.05;;;11.20;99.90;;;9.42;100.00;100357.41;4835934;29;20434;-86
2024/03/02 10:43:51;;;;;;;175.02;55.22;;;;;;;9.38;100.00;100363.72;4812909;29;20079;-85
2024/03/02 10:47:28;;;;;;;;;;;;;;;;;;;;;
2024/03/02 10:51:01;;;;;;;178.23;55.72;;;10.60;99.90;;;9.35;100.00;100358.59;4846186;29;20053;-86
2024/03/02 10:57:03;;;;;;;;;;;;;;;;;;;;;
2024/03/02 10:59:49;;;;;;;211.07;62.30;;;;;;;9.46;100.00;100351.06;4751426;29;21073;-86
2024/03/02 11:06:34;;;;;;;;;;;;;;;;;;;;;
2024/03/02 11:09:22;;;;;;;196.03;62.67;;;;;;;9.42;100.00;100357.41;4576531;30;2115425;-85
2024/03/02 11:15:29;;;;;;;177.90;61.58;;;;;;;9.43;100.00;100344.16;4486706;30;2528121;-86
2024/03/02 11:18:00;;;;;;;192.27;64.07;;;;;;;9.52;100.00;100344.66;4663323;30;20041;-87
2024/03/02 11:20:47;;;;;;;163.65;59.28;;;;;;;9.55;100.00;100342.72;4689659;30;20048;-86
2024/03/02 11:23:50;;;;;;;165.25;55.55;;;10.80;99.90;;;9.57;100.00;100348.78;4707349;29;20059;-86
2024/03/02 11:26:47;;;;;;;181.48;62.05;;;;;;;9.65;100.00;100354.50;4678385;30;20051;-86
2024/03/02 11:30:10;;;;;;;183.70;66.72;;;11.00;99.90;;;9.76;100.00;100361.00;4714325;29;20051;-86
2024/03/02 11:35:51;;;;;;;193.98;68.00;;;11.10;99.90;;;9.91;100.00;100359.41;4794799;29;20045;-86
2024/03/02 11:38:41;;;;;;;189.80;66.32;;;;;;;9.98;100.00;100366.06;4753592;29;20053;-87
2024/03/02 11:44:49;;;;;;;184.98;64.85;;;;;;;10.11;100.00;100369.78;4869723;28;20466;-87
2024/03/02 11:48:18;;;;;;;173.55;64.78;;;11.30;99.90;;;10.16;100.00;100372.19;4870589;28;20043;-88